Time;durP1;ratioP1;P1;durP2;ratioP2;P2;SDS_P1;SDS_P2;PMS_P1;PMS_P2;Temp;Humidity;BMP_temperature;BMP_pressure;BME280_temperature;BME280_humidity;BME280_pressure;Samples;Min_cycle;Max_cycle;Signal;HPM_P1;HPM_P2
2021/06/17 00:00:47;;;;;;;2.75;2.55;;;;;;;15.02;80.21;96050.22;5159051;57;20129;-76
2021/06/17 00:05:49;;;;;;;2.75;2.55;;;;;;;14.94;80.27;96056.75;5159435;57;20649;-76
2021/06/17 00:10:53;;;;;;;3.47;2.33;;;;;;;14.85;80.31;96048.59;5159048;57;20129;-76
2021/06/17 00:15:58;;;;;;;4.90;2.47;;;;;;;14.83;80.85;96045.56;5158957;57;20134;-76
2021/06/17 00:21:03;;;;;;;2.97;2.60;;;;;;;14.84;80.83;96038.72;5159299;57;20209;-76
2021/06/17 00:26:05;;;;;;;3.22;2.55;;;;;;;14.74;80.77;96054.88;5158618;57;20141;-76
2021/06/17 00:31:08;;;;;;;2.75;2.55;;;;;;;14.75;80.74;96050.06;5158776;57;20612;-76
2021/06/17 00:36:10;;;;;;;2.72;2.53;;;;;;;14.69;80.87;96049.28;5158450;57;20121;-76
2021/06/17 00:41:13;;;;;;;3.00;2.70;;;;;;;14.36;81.65;96033.09;5158500;57;20179;-77
2021/06/17 00:46:16;;;;;;;3.03;2.70;;;;;;;14.38;81.26;96043.75;5158242;57;20129;-76
2021/06/17 00:51:18;;;;;;;2.30;2.10;;;;;;;14.22;81.41;96034.72;5158912;57;20722;-76
2021/06/17 00:56:22;;;;;;;4.20;2.55;;;;;;;14.23;81.22;96033.50;5161240;57;20121;-76
2021/06/17 01:01:25;;;;;;;2.92;2.72;;;;;;;14.21;81.42;96032.44;5161460;57;20129;-76
2021/06/17 01:06:27;;;;;;;2.72;2.53;;;;;;;14.17;81.60;96038.25;5161765;57;20125;-76
2021/06/17 01:11:51;;;;;;;2.65;2.20;;;;;;;14.02;81.56;96020.91;5152471;57;20180;-76
2021/06/17 01:17:02;;;;;;;2.75;2.47;;;;;;;13.98;81.81;96025.94;5161368;57;20766;-76
2021/06/17 01:22:12;;;;;;;3.55;2.28;;;;;;;14.05;81.37;96025.50;5161224;57;20586;-76
2021/06/17 01:27:34;;;;;;;2.67;2.47;;;;;;;14.15;80.82;96032.41;5153803;57;20120;-76
2021/06/17 01:32:40;;;;;;;2.28;2.17;;;;;;;14.05;81.28;96014.38;5161340;57;20156;-76
2021/06/17 01:37:44;;;;;;;2.58;2.30;;;;;;;13.86;81.62;96012.47;5161581;57;20891;-75
2021/06/17 01:42:47;;;;;;;3.25;2.40;;;;;;;13.69;82.03;96015.06;5162194;57;20107;-76
2021/06/17 01:47:51;;;;;;;2.67;2.47;;;;;;;13.63;82.20;96017.81;5161335;57;20134;-76
2021/06/17 01:52:55;;;;;;;2.75;2.55;;;;;;;13.82;81.83;96012.66;5160777;57;20130;-76
2021/06/17 01:58:03;;;;;;;2.60;2.50;;;;;;;13.50;82.48;96011.09;5160752;57;20125;-76
2021/06/17 02:03:07;;;;;;;3.20;2.92;;;;;;;13.50;82.87;96008.31;5160495;57;20629;-77
2021/06/17 02:08:11;;;;;;;3.10;2.75;;;;;;;13.41;83.20;96014.03;5160784;57;20138;-76
2021/06/17 02:13:16;;;;;;;2.85;2.60;;;;;;;13.48;83.12;96002.47;5160678;57;20653;-76
2021/06/17 02:18:25;;;;;;;3.63;2.50;;;;;;;13.39;83.31;95994.31;5160469;57;20133;-76
2021/06/17 02:23:29;;;;;;;;;;;;;;;13.50;82.84;95991.66;5160673;57;20125;-76
2021/06/17 02:28:40;;;;;;;2.53;2.38;;;;;;;13.44;83.03;95985.28;5160449;57;19990;-75
2021/06/17 02:33:46;;;;;;;3.08;2.60;;;;;;;13.41;83.10;95975.19;5151735;57;20111;-76
2021/06/17 02:38:51;;;;;;;4.95;2.45;;;;;;;13.31;83.30;95971.03;5160256;57;20147;-76
2021/06/17 02:43:57;;;;;;;2.78;2.58;;;;;;;13.28;83.50;95988.63;5160151;57;20138;-76
2021/06/17 02:48:59;;;;;;;4.65;2.90;;;;;;;13.20;83.54;95982.00;5160146;57;20685;-76
2021/06/17 02:54:02;;;;;;;3.17;2.88;;;;;;;13.25;83.81;95972.97;5160082;57;20168;-76
2021/06/17 02:59:19;;;;;;;5.95;3.28;;;;;;;13.15;84.07;95977.91;5160040;57;20129;-76
2021/06/17 03:04:33;;;;;;;3.08;2.78;;;;;;;13.18;83.68;95978.97;5159605;57;20133;-76
2021/06/17 03:09:45;;;;;;;4.20;2.97;;;;;;;13.02;84.48;95969.16;5159914;57;20142;-76
2021/06/17 03:14:49;;;;;;;4.80;2.55;;;;;;;12.97;85.00;95961.53;5159293;57;20139;-76
2021/06/17 03:19:55;;;;;;;4.88;2.80;;;;;;;13.19;84.41;95966.59;5167671;57;20129;-76
2021/06/17 03:25:02;;;;;;;3.15;2.92;;;;;;;13.22;84.17;95966.41;5159379;57;20130;-76
2021/06/17 03:30:06;;;;;;;3.17;2.88;;;;;;;13.25;84.06;95972.97;5159572;57;20135;-76
2021/06/17 03:35:10;;;;;;;3.50;3.20;;;;;;;13.12;84.11;95969.78;5159380;57;20182;-76
2021/06/17 03:40:13;;;;;;;2.90;2.67;;;;;;;13.13;84.81;95983.19;5159333;57;20773;-76
2021/06/17 03:45:18;;;;;;;3.38;3.08;;;;;;;13.25;84.23;95975.75;5159004;57;20129;-76
2021/06/17 03:50:24;;;;;;;3.50;2.80;;;;;;;13.29;84.21;95976.31;5159275;57;20191;-76
2021/06/17 03:55:26;;;;;;;4.43;3.15;;;;;;;13.54;83.89;95981.88;5159001;57;20129;-76
2021/06/17 04:00:30;;;;;;;3.88;3.10;;;;;;;13.52;84.13;95983.63;5159464;57;20130;-76
2021/06/17 04:05:34;;;;;;;5.18;3.35;;;;;;;13.72;83.27;95989.09;5171417;57;20116;-76
2021/06/17 04:10:40;;;;;;;3.53;3.22;;;;;;;13.89;83.03;95994.78;5182563;57;20125;-76
2021/06/17 04:15:44;;;;;;;6.03;2.90;;;;;;;14.13;82.50;95998.81;5160683;57;20138;-76
2021/06/17 04:20:47;;;;;;;4.95;3.08;;;;;;;14.22;82.19;96006.94;5159689;57;20198;-77
2021/06/17 04:25:51;;;;;;;3.72;3.13;;;;;;;14.33;81.99;96007.06;5158986;57;20827;-76
2021/06/17 04:30:56;;;;;;;4.22;3.30;;;;;;;14.54;81.72;96012.53;5161761;57;20125;-76
2021/06/17 04:36:02;;;;;;;4.90;3.25;;;;;;;14.66;81.86;96017.66;5162025;57;20125;-76
2021/06/17 04:41:07;;;;;;;5.20;3.25;;;;;;;14.89;82.21;96019.31;5162402;57;20285;-76
2021/06/17 04:46:10;;;;;;;4.88;3.35;;;;;;;15.10;82.09;96028.25;5161939;57;20586;-76
2021/06/17 04:51:13;;;;;;;4.70;3.40;;;;;;;15.32;82.29;96025.56;5162042;57;20292;-76
2021/06/17 04:56:16;;;;;;;5.38;3.80;;;;;;;15.42;82.94;96029.66;5163279;57;20121;-76
2021/06/17 05:01:18;;;;;;;5.00;3.78;;;;;;;15.75;82.62;96031.78;5161650;57;20133;-75
2021/06/17 05:06:21;;;;;;;4.50;4.10;;;;;;;16.06;83.56;96030.81;5161648;57;20125;-76
2021/06/17 05:11:25;;;;;;;4.90;3.72;;;;;;;16.37;83.16;96045.28;5161411;57;20143;-77
2021/06/17 05:16:27;;;;;;;6.53;4.60;;;;;;;16.77;78.19;96041.22;5153013;57;20125;-77
2021/06/17 05:21:30;;;;;;;5.63;4.00;;;;;;;17.05;75.13;96041.19;5161757;57;20139;-77
2021/06/17 05:26:34;;;;;;;6.03;4.53;;;;;;;17.60;73.32;96045.78;5158902;57;20138;-77
2021/06/17 05:31:36;;;;;;;8.13;4.38;;;;;;;18.01;72.24;96046.59;5159541;57;20143;-77
2021/06/17 05:36:38;;;;;;;5.75;4.18;;;;;;;18.34;72.48;96057.53;5159254;57;20116;-77
2021/06/17 05:41:41;;;;;;;6.55;4.22;;;;;;;18.52;70.34;96037.31;5157633;57;20134;-77
2021/06/17 05:46:43;;;;;;;4.03;3.70;;;;;;;18.80;71.59;96039.88;5158121;57;20134;-77
2021/06/17 05:51:46;;;;;;;5.65;3.97;;;;;;;18.97;69.61;96037.69;5158228;57;20231;-77
2021/06/17 05:56:49;;;;;;;7.75;3.92;;;;;;;19.16;68.97;96041.28;5164670;57;20671;-78
2021/06/17 06:01:51;;;;;;;6.22;3.97;;;;;;;19.54;68.74;96050.53;5160365;57;20120;-78
2021/06/17 06:06:55;;;;;;;3.97;3.38;;;;;;;19.70;66.98;96043.97;5163913;57;20134;-77
2021/06/17 06:11:57;;;;;;;7.55;3.65;;;;;;;20.12;66.05;96048.00;5162454;57;20125;-78
2021/06/17 06:16:59;;;;;;;4.75;3.60;;;;;;;20.19;67.05;96047.38;5162241;57;20117;-78
2021/06/17 06:22:04;;;;;;;3.85;3.55;;;;;;;20.37;66.17;96048.66;5159115;57;20134;-78
2021/06/17 06:27:07;;;;;;;4.15;3.72;;;;;;;20.82;63.65;96049.44;5161389;57;20743;-78
2021/06/17 06:32:10;;;;;;;4.90;3.70;;;;;;;20.81;63.41;96058.38;5160914;57;20426;-78
2021/06/17 06:37:12;;;;;;;10.75;3.28;;;;;;;21.07;61.39;96050.81;5160041;57;20219;-77
2021/06/17 06:42:14;;;;;;;3.72;2.95;;;;;;;21.31;59.51;96056.22;5160458;57;20169;-77
2021/06/17 06:47:17;;;;;;;3.38;3.08;;;;;;;21.52;59.17;96055.56;5160967;57;20124;-77
2021/06/17 06:52:19;;;;;;;3.75;2.58;;;;;;;21.81;58.16;96060.09;5161547;57;20120;-77
2021/06/17 06:57:21;;;;;;;3.35;2.90;;;;;;;22.11;57.64;96066.88;5164704;57;20134;-76
2021/06/17 07:02:24;;;;;;;3.00;2.80;;;;;;;22.45;57.00;96083.75;5165406;57;20124;-78
2021/06/17 07:07:27;;;;;;;3.42;2.78;;;;;;;22.75;58.02;96083.34;5163841;57;20116;-78
2021/06/17 07:12:29;;;;;;;3.53;3.22;;;;;;;22.84;56.50;96086.41;5162731;57;20130;-78
2021/06/17 07:17:32;;;;;;;3.67;2.88;;;;;;;23.30;56.92;96084.72;5161814;57;20120;-77
2021/06/17 07:22:35;;;;;;;4.22;2.90;;;;;;;23.34;55.87;96087.22;5151578;57;20625;-77
2021/06/17 07:27:38;;;;;;;3.55;2.80;;;;;;;23.54;56.34;96080.78;5158577;57;20142;-78
2021/06/17 07:32:41;;;;;;;4.13;3.38;;;;;;;23.87;55.64;96085.47;5161824;57;20653;-78
2021/06/17 07:37:43;;;;;;;3.53;2.97;;;;;;;24.07;56.24;96083.91;5163176;57;20129;-77
2021/06/17 07:42:47;;;;;;;3.67;2.90;;;;;;;24.04;53.80;96082.91;5161721;57;20670;-77
2021/06/17 07:47:50;;;;;;;3.72;3.20;;;;;;;24.82;51.51;96089.03;5161453;57;20599;-78
2021/06/17 07:52:52;;;;;;;3.47;3.15;;;;;;;25.73;49.98;96091.84;5162372;57;20129;-78
2021/06/17 07:57:54;;;;;;;4.90;3.05;;;;;;;27.31;46.36;96087.47;5165127;57;20120;-79
2021/06/17 08:03:00;;;;;;;3.80;2.47;;;;;;;27.73;46.06;96106.00;5160911;57;20125;-77
2021/06/17 08:08:03;;;;;;;10.48;3.13;;;;;;;29.04;42.66;96101.75;5164453;57;20121;-77
2021/06/17 08:13:05;;;;;;;2.78;2.58;;;;;;;29.38;41.15;96089.50;5158998;57;20121;-77
2021/06/17 08:18:08;;;;;;;3.00;2.65;;;;;;;28.31;44.89;96078.88;5162320;57;20613;-77
2021/06/17 08:23:10;;;;;;;3.42;2.85;;;;;;;28.76;46.00;96091.00;5163802;57;20151;-78
2021/06/17 08:28:12;;;;;;;4.65;2.90;;;;;;;30.40;39.74;96088.75;5160442;57;20116;-77
2021/06/17 08:33:15;;;;;;;5.35;2.90;;;;;;;30.06;41.40;96093.97;5160475;57;20120;-77
2021/06/17 08:38:20;;;;;;;5.70;2.80;;;;;;;31.25;39.56;96089.16;5163647;57;20130;-76
2021/06/17 08:43:22;;;;;;;5.90;2.80;;;;;;;30.75;40.00;96091.25;5165130;57;20125;-77
2021/06/17 08:48:25;;;;;;;3.83;2.70;;;;;;;31.64;39.63;96099.03;5167016;57;20126;-78
2021/06/17 08:53:27;;;;;;;7.78;2.75;;;;;;;31.26;37.29;96092.75;5166037;57;20664;-76
2021/06/17 08:58:29;;;;;;;5.50;2.95;;;;;;;32.22;38.64;96092.97;5159126;57;20108;-77
2021/06/17 09:03:38;;;;;;;2.80;2.53;;;;;;;33.22;34.90;96098.78;5159627;57;20120;-77
2021/06/17 09:08:40;;;;;;;8.25;2.80;;;;;;;31.41;34.90;96087.44;5172400;57;20104;-78
2021/06/17 09:13:42;;;;;;;4.43;2.80;;;;;;;32.37;35.73;96090.41;5185453;57;20151;-77
2021/06/17 09:18:45;;;;;;;4.93;2.53;;;;;;;32.79;33.70;96088.84;5176356;57;20125;-77
2021/06/17 09:23:49;;;;;;;5.85;2.60;;;;;;;34.12;33.16;96097.13;5165930;57;20147;-78
2021/06/17 09:29:07;;;;;;;3.38;2.72;;;;;;;33.86;33.60;96096.28;5177224;57;20116;-77
2021/06/17 09:34:10;;;;;;;3.85;2.42;;;;;;;32.46;33.67;96091.69;5166915;57;20121;-78
2021/06/17 09:39:21;;;;;;;4.63;3.08;;;;;;;32.40;32.89;96094.91;5168732;57;20125;-78
2021/06/17 09:44:30;;;;;;;2.65;2.45;;;;;;;32.57;31.85;96091.00;5163386;57;20134;-77
2021/06/17 09:49:33;;;;;;;2.42;2.30;;;;;;;34.00;34.55;96107.84;5167832;57;20134;-78
2021/06/17 09:54:39;;;;;;;3.75;2.55;;;;;;;34.20;34.25;96106.94;5154393;57;20130;-78
2021/06/17 09:59:47;;;;;;;4.15;2.60;;;;;;;34.21;33.60;96113.44;5163344;57;20133;-78
2021/06/17 10:05:07;;;;;;;2.92;2.53;;;;;;;34.23;34.18;96107.81;5163582;57;20139;-78
2021/06/17 10:10:12;;;;;;;2.88;2.60;;;;;;;33.87;32.06;96106.38;5165277;57;20577;-77
2021/06/17 10:15:15;;;;;;;4.15;2.63;;;;;;;34.06;32.49;96108.25;5156732;57;20493;-78
2021/06/17 10:20:17;;;;;;;6.65;2.22;;;;;;;35.02;30.87;96104.50;5179407;57;20207;-77
2021/06/17 10:25:30;;;;;;;3.45;2.50;;;;;;;33.69;31.63;96097.44;5168680;57;20116;-79
2021/06/17 10:30:48;;;;;;;6.80;3.40;;;;;;;34.34;30.86;96098.41;5168016;57;20125;-79
2021/06/17 10:35:50;;;;;;;4.80;2.75;;;;;;;33.92;30.23;96094.50;5168612;57;20112;-78
2021/06/17 10:40:55;;;;;;;4.57;3.00;;;;;;;33.80;31.80;96093.03;5168063;57;20635;-78
2021/06/17 10:45:57;;;;;;;8.38;2.72;;;;;;;33.73;29.70;96091.19;5164451;57;20129;-77
2021/06/17 10:51:02;;;;;;;3.67;2.60;;;;;;;33.60;29.14;96101.19;5167972;57;20125;-77
2021/06/17 10:56:05;;;;;;;3.20;2.00;;;;;;;33.49;30.74;96081.84;5164622;57;20111;-78
2021/06/17 11:01:35;;;;;;;3.92;2.30;;;;;;;34.36;28.84;96087.06;5155452;57;21235;-77
2021/06/17 11:06:53;;;;;;;2.60;2.00;;;;;;;34.65;25.99;96084.44;5153353;57;20125;-77
2021/06/17 11:11:55;;;;;;;3.80;2.10;;;;;;;35.72;25.94;96081.75;5160395;57;20120;-77
2021/06/17 11:16:58;;;;;;;2.97;1.92;;;;;;;34.43;26.82;96071.69;5158379;57;20107;-77
2021/06/17 11:22:05;;;;;;;2.42;2.10;;;;;;;34.35;26.83;96062.63;5153973;57;20183;-78
2021/06/17 11:27:26;;;;;;;3.38;2.25;;;;;;;34.76;27.88;96034.09;5167882;57;20222;-78
2021/06/17 11:32:31;;;;;;;5.50;2.15;;;;;;;35.56;25.49;96043.50;5159551;57;20678;-79
2021/06/17 11:37:33;;;;;;;2.72;1.75;;;;;;;36.23;25.06;96047.72;5158737;57;20130;-79
2021/06/17 11:42:36;;;;;;;3.22;1.77;;;;;;;35.28;24.14;96039.88;5156314;57;20121;-78
2021/06/17 11:47:48;;;;;;;2.55;2.20;;;;;;;34.17;26.31;96044.34;5169918;57;20202;-78
2021/06/17 11:52:50;;;;;;;1.95;1.83;;;;;;;34.63;28.68;96024.81;5152456;57;20195;-79
2021/06/17 11:57:53;;;;;;;4.03;2.00;;;;;;;33.60;28.72;96043.09;5166904;57;20170;-78
2021/06/17 12:02:56;;;;;;;2.50;1.60;;;;;;;35.13;23.42;96044.09;5169333;57;20222;-78
2021/06/17 12:08:00;;;;;;;2.53;1.58;;;;;;;35.82;23.72;96039.13;5171749;57;20165;-77
2021/06/17 12:13:04;;;;;;;1.50;1.40;;;;;;;34.78;23.22;96028.47;5161123;57;20223;-79
2021/06/17 12:18:08;;;;;;;3.60;1.60;;;;;;;35.26;24.95;96031.13;5151066;57;20121;-78
2021/06/17 12:23:20;;;;;;;2.55;1.60;;;;;;;35.20;25.71;96025.81;5168753;57;20602;-78
2021/06/17 12:28:23;;;;;;;1.88;1.75;;;;;;;35.24;22.77;96023.16;5159919;57;20947;-78
2021/06/17 12:33:31;;;;;;;1.65;1.50;;;;;;;35.01;26.29;96022.59;5167824;57;20169;-78
2021/06/17 12:38:40;;;;;;;2.35;1.90;;;;;;;35.12;28.04;96022.50;5162754;57;20112;-78
2021/06/17 12:43:52;;;;;;;3.95;1.52;;;;;;;35.25;24.59;96016.03;5172638;57;20727;-78
2021/06/17 12:54:23;;;;;;;5.70;1.90;;;;;;;33.92;23.87;96008.50;5178484;57;20112;-78
2021/06/17 13:00:01;;;;;;;2.22;1.80;;;;;;;35.39;22.54;96010.28;5172215;57;20648;-78
2021/06/17 13:05:18;;;;;;;3.47;1.85;;;;;;;33.89;24.99;96001.16;5168570;57;20117;-78
2021/06/17 13:10:24;;;;;;;2.00;1.67;;;;;;;36.05;22.99;96004.41;5161997;57;20559;-78
2021/06/17 13:15:30;;;;;;;2.93;2.20;;;;;;;35.66;23.45;96003.81;5163042;57;20107;-79
2021/06/17 13:20:47;;;;;;;2.28;1.45;;;;;;;35.17;23.03;96011.97;5171902;57;20107;-78
2021/06/17 13:26:03;;;;;;;1.65;1.55;;;;;;;34.93;22.56;96011.38;5161990;57;20107;-78
2021/06/17 13:31:09;;;;;;;1.80;1.70;;;;;;;35.00;24.10;96003.84;5164740;57;20568;-78
2021/06/17 13:36:13;;;;;;;1.92;1.77;;;;;;;34.88;23.99;95998.19;5153207;57;20197;-78
2021/06/17 13:41:15;;;;;;;2.90;1.60;;;;;;;34.04;23.46;95999.16;5164213;57;20143;-77
2021/06/17 13:46:18;;;;;;;2.20;1.67;;;;;;;34.56;25.94;96002.13;5162357;57;20155;-78
2021/06/17 13:51:21;;;;;;;1.70;1.58;;;;;;;33.75;26.16;96002.44;5162715;57;20169;-78
2021/06/17 13:56:23;;;;;;;3.67;2.13;;;;;;;33.30;24.84;95993.28;5162132;57;20297;-77
2021/06/17 14:01:26;;;;;;;3.08;1.90;;;;;;;34.51;23.54;95991.81;5169785;57;20199;-78
2021/06/17 14:06:28;;;;;;;2.95;1.55;;;;;;;33.67;23.60;95990.50;5169687;57;20130;-78
2021/06/17 14:11:30;;;;;;;1.73;1.50;;;;;;;35.49;22.80;95984.97;5167020;57;20990;-77
2021/06/17 14:16:33;;;;;;;3.88;1.50;;;;;;;36.05;21.14;95992.13;5161797;57;20283;-78
2021/06/17 14:21:36;;;;;;;2.47;1.63;;;;;;;34.66;22.94;95985.47;5167330;57;20112;-78
2021/06/17 14:26:42;;;;;;;3.65;1.50;;;;;;;34.14;23.57;95976.78;5172049;57;20095;-78
2021/06/17 14:31:44;;;;;;;1.70;1.60;;;;;;;34.45;21.52;95983.59;5189616;57;20126;-78
2021/06/17 14:36:47;;;;;;;1.48;1.42;;;;;;;34.29;25.49;95979.06;5168339;57;20121;-79
2021/06/17 14:41:49;;;;;;;1.70;1.60;;;;;;;34.53;21.76;95986.94;5154255;57;20116;-78
2021/06/17 14:46:52;;;;;;;1.67;1.58;;;;;;;32.90;22.96;95988.69;5161401;57;20541;-78
2021/06/17 14:51:54;;;;;;;1.20;1.20;;;;;;;33.38;24.69;95993.03;5165470;57;20098;-79
2021/06/17 14:56:57;;;;;;;1.77;1.67;;;;;;;33.08;23.48;95989.06;5166810;57;20335;-78
2021/06/17 15:02:01;;;;;;;2.58;1.60;;;;;;;33.16;22.97;95989.56;5150347;57;20545;-77
2021/06/17 15:07:04;;;;;;;4.13;1.70;;;;;;;33.56;22.76;95974.81;5153031;57;20648;-78
2021/06/17 15:12:07;;;;;;;4.18;1.83;;;;;;;32.89;25.66;95984.31;5151233;57;20191;-77
2021/06/17 15:17:11;;;;;;;4.53;2.10;;;;;;;32.08;25.67;95980.50;5160104;57;20159;-76
2021/06/17 15:22:14;;;;;;;2.92;1.95;;;;;;;32.15;24.82;95974.59;5161049;57;20213;-76
2021/06/17 15:27:16;;;;;;;1.70;1.60;;;;;;;32.37;23.51;95976.00;5151057;57;20536;-76
2021/06/17 15:32:19;;;;;;;4.15;2.00;;;;;;;32.31;25.08;95967.03;5150936;57;20227;-75
2021/06/17 15:37:21;;;;;;;3.00;1.63;;;;;;;32.23;24.84;95966.50;5151719;57;20238;-76
2021/06/17 15:42:24;;;;;;;1.80;1.70;;;;;;;31.89;25.32;95962.16;5142804;57;20125;-77
2021/06/17 15:47:26;;;;;;;2.00;1.80;;;;;;;31.63;26.00;95962.53;5160016;57;20188;-76
2021/06/17 15:52:29;;;;;;;9.35;1.77;;;;;;;31.61;24.97;95950.97;5150121;57;20652;-77
2021/06/17 15:57:31;;;;;;;2.10;1.98;;;;;;;31.31;28.68;95948.91;5158812;57;20243;-77
2021/06/17 16:02:34;;;;;;;1.83;1.73;;;;;;;31.39;28.78;95944.47;5155434;57;20209;-75
2021/06/17 16:07:36;;;;;;;2.10;2.00;;;;;;;31.12;27.00;95950.53;5151351;57;20257;-76
2021/06/17 16:12:39;;;;;;;3.50;2.00;;;;;;;31.20;27.09;95956.03;5157900;57;20124;-76
2021/06/17 16:17:47;;;;;;;2.10;2.00;;;;;;;31.16;27.65;95939.38;5147960;57;20243;-76
2021/06/17 16:22:50;;;;;;;3.42;1.75;;;;;;;31.24;27.20;95939.19;5149727;57;20550;-76
2021/06/17 16:27:54;;;;;;;4.05;2.28;;;;;;;30.92;28.09;95923.44;5161509;57;20103;-76
2021/06/17 16:32:57;;;;;;;2.10;2.00;;;;;;;30.95;28.47;95933.66;5160350;57;20120;-76
2021/06/17 16:38:00;;;;;;;2.33;1.90;;;;;;;30.68;29.88;95935.28;5153055;57;20103;-76
2021/06/17 16:59:56;;;;;;;2.60;2.20;;;;;;;30.20;32.34;95930.47;5374857;46;20268;-76
2021/06/17 17:04:58;;;;;;;3.80;2.33;;;;;;;30.34;32.35;95931.50;5180961;57;20133;-75
2021/06/17 17:10:00;;;;;;;3.88;2.33;;;;;;;30.32;30.17;95924.91;5184165;57;20870;-75
2021/06/17 17:15:08;;;;;;;4.25;2.13;;;;;;;30.43;32.33;95927.88;5182860;57;20111;-76
2021/06/17 17:20:11;;;;;;;2.13;2.03;;;;;;;30.35;31.14;95937.97;5160569;57;20124;-76
2021/06/17 17:25:14;;;;;;;4.22;2.25;;;;;;;30.41;32.46;95932.69;5165803;57;20703;-76
2021/06/17 17:30:17;;;;;;;2.28;2.08;;;;;;;30.29;32.94;95938.25;5152933;57;20676;-75
2021/06/17 17:35:20;;;;;;;3.00;2.30;;;;;;;30.66;31.19;95935.88;5167113;57;20106;-75
2021/06/17 17:40:23;;;;;;;4.50;2.00;;;;;;;31.41;30.96;95953.22;5161175;57;20119;-76
2021/06/17 17:45:26;;;;;;;3.38;1.90;;;;;;;32.18;31.10;95953.34;5172163;57;20128;-76
2021/06/17 17:50:28;;;;;;;3.55;1.90;;;;;;;31.69;31.89;95951.50;5163881;57;20649;-76
2021/06/17 17:55:31;;;;;;;4.97;2.30;;;;;;;30.68;33.02;95958.84;5165626;57;20129;-75
2021/06/17 18:00:33;;;;;;;2.40;2.28;;;;;;;30.17;33.67;95950.88;5156091;57;20163;-76
2021/06/17 18:05:36;;;;;;;4.85;2.08;;;;;;;30.03;34.07;95938.47;5176662;57;20138;-76
2021/06/17 18:10:42;;;;;;;2.20;2.10;;;;;;;30.08;38.16;95937.41;5160970;57;20569;-76
2021/06/17 18:21:15;;;;;;;2.97;2.40;;;;;;;28.31;39.80;95936.03;4354327;52;20244;-75
2021/06/17 18:26:17;;;;;;;3.92;2.05;;;;;;;27.59;43.97;95943.00;5203293;56;20136;-76
2021/06/17 18:31:20;;;;;;;3.47;2.05;;;;;;;27.16;46.65;95955.00;5192945;56;20114;-75
2021/06/17 18:36:23;;;;;;;2.45;2.25;;;;;;;26.78;50.28;95949.69;5185142;57;20119;-78
2021/06/17 18:41:25;;;;;;;5.15;2.42;;;;;;;26.43;50.46;95950.13;5213533;57;20110;-78
2021/06/17 18:46:29;;;;;;;4.85;2.40;;;;;;;26.17;51.02;95954.25;5204190;57;20175;-78
2021/06/17 18:51:31;;;;;;;3.20;2.30;;;;;;;25.53;53.88;95958.50;5205477;57;20109;-78
2021/06/17 18:56:34;;;;;;;2.97;2.22;;;;;;;24.94;55.84;95952.41;5210799;56;20105;-77
2021/06/17 19:01:36;;;;;;;3.58;2.17;;;;;;;24.50;56.14;95950.31;5211733;57;20208;-79
2021/06/17 19:06:40;;;;;;;8.02;2.70;;;;;;;24.35;54.67;95945.44;5190507;56;20214;-75
2021/06/17 19:11:42;;;;;;;4.93;2.40;;;;;;;23.86;57.29;95948.50;5201763;57;20110;-78
2021/06/17 19:16:46;;;;;;;4.20;2.67;;;;;;;23.51;59.85;95955.72;5696848;45;20124;-77
2021/06/17 19:21:49;;;;;;;2.47;2.28;;;;;;;23.05;59.88;95962.38;5175457;57;20904;-77
2021/06/17 19:26:52;;;;;;;4.03;2.67;;;;;;;22.81;60.94;95957.94;5179079;57;20141;-77
2021/06/17 19:31:55;;;;;;;2.97;2.35;;;;;;;22.45;62.20;95959.09;5182437;57;20250;-76
2021/06/17 19:36:57;;;;;;;2.65;2.45;;;;;;;22.44;61.42;95963.22;5179463;57;20233;-78
2021/06/17 19:42:00;;;;;;;3.33;2.70;;;;;;;22.05;64.33;95966.97;5182039;57;20150;-78
2021/06/17 19:47:03;;;;;;;5.43;2.38;;;;;;;21.85;64.46;95970.50;5197029;57;20119;-78
2021/06/17 19:52:10;;;;;;;4.97;2.42;;;;;;;21.53;66.38;95965.03;5190752;57;20686;-77
2021/06/17 19:57:12;;;;;;;4.43;2.60;;;;;;;21.30;67.14;95964.75;5174530;57;20129;-77
2021/06/17 20:02:18;;;;;;;3.92;2.58;;;;;;;21.20;67.09;95969.31;5169307;57;20141;-77
2021/06/17 20:07:20;;;;;;;2.85;2.65;;;;;;;20.99;68.04;95976.09;5183470;57;20120;-78
2021/06/17 20:12:25;;;;;;;5.72;2.60;;;;;;;20.71;68.64;95966.13;5174986;57;20155;-77
2021/06/17 20:17:28;;;;;;;6.68;2.80;;;;;;;20.50;68.31;95972.91;5167819;57;20648;-78
2021/06/17 20:22:30;;;;;;;2.83;2.63;;;;;;;20.23;70.03;95976.94;5176337;57;20206;-78
2021/06/17 20:27:33;;;;;;;3.22;2.92;;;;;;;20.18;70.45;95983.38;5176078;57;20200;-77
2021/06/17 20:32:35;;;;;;;3.75;2.88;;;;;;;20.12;71.98;95982.72;5182955;57;20111;-76
2021/06/17 20:37:38;;;;;;;3.67;2.72;;;;;;;19.99;70.87;95977.81;5182376;57;20111;-77
2021/06/17 20:42:41;;;;;;;3.47;2.92;;;;;;;19.72;72.27;95979.72;5163134;57;20110;-77
2021/06/17 20:47:44;;;;;;;5.82;2.90;;;;;;;19.61;72.66;95976.31;5174804;57;20780;-78
2021/06/17 20:52:47;;;;;;;4.38;3.00;;;;;;;19.65;72.70;95979.59;5181960;57;20124;-77
2021/06/17 20:57:49;;;;;;;3.85;2.80;;;;;;;19.63;72.02;95990.56;5295508;46;20135;-76
2021/06/17 21:02:52;;;;;;;5.03;2.80;;;;;;;19.36;72.53;95986.09;5221010;56;20132;-75
2021/06/17 21:07:54;;;;;;;7.20;2.88;;;;;;;19.25;72.51;95990.50;5221755;56;20123;-76
2021/06/17 21:12:56;;;;;;;5.93;2.60;;;;;;;19.26;71.63;95991.25;5217171;56;20122;-76
2021/06/17 21:18:10;;;;;;;3.28;3.03;;;;;;;19.18;71.62;95991.09;5210826;56;20113;-76
2021/06/17 21:23:12;;;;;;;2.90;2.70;;;;;;;18.97;73.00;95994.91;5219998;56;20140;-75
2021/06/17 21:28:15;;;;;;;2.78;2.58;;;;;;;19.05;71.04;95990.22;5223297;56;20671;-76
2021/06/17 21:33:17;;;;;;;6.40;3.00;;;;;;;18.90;72.57;95996.25;5221433;56;20127;-76
2021/06/17 21:38:20;;;;;;;5.03;2.75;;;;;;;18.58;73.80;95990.47;5222205;56;20127;-76
2021/06/17 21:43:23;;;;;;;3.28;2.70;;;;;;;18.49;74.16;95988.03;5214221;56;20132;-75
2021/06/17 21:48:25;;;;;;;3.97;2.80;;;;;;;18.52;74.50;95992.56;5224721;56;20703;-75
2021/06/17 21:53:27;;;;;;;3.92;2.90;;;;;;;18.19;74.70;95998.41;5234946;56;20127;-76
2021/06/17 21:58:30;;;;;;;3.88;3.50;;;;;;;18.47;73.50;95992.63;5230811;56;20582;-75
2021/06/17 22:03:32;;;;;;;3.83;3.05;;;;;;;18.48;73.20;95991.31;5225396;56;20140;-77
2021/06/17 22:08:35;;;;;;;5.22;3.22;;;;;;;17.73;74.99;95962.91;5221542;56;20207;-76
2021/06/17 22:13:37;;;;;;;3.70;3.40;;;;;;;17.98;74.66;95993.75;5221510;56;20644;-76
2021/06/17 22:18:39;;;;;;;3.17;2.72;;;;;;;17.91;74.05;95995.81;5221671;56;20131;-76
2021/06/17 22:23:42;;;;;;;5.10;3.00;;;;;;;17.83;74.92;95991.31;5221231;56;20617;-76
2021/06/17 22:28:44;;;;;;;3.53;3.22;;;;;;;17.92;73.95;95997.34;5221666;56;20578;-76
2021/06/17 22:33:47;;;;;;;4.93;3.53;;;;;;;17.71;74.64;95995.44;5221508;56;20158;-76
2021/06/17 22:38:49;;;;;;;3.63;2.95;;;;;;;17.57;75.55;95993.75;5221496;56;20127;-76
2021/06/17 22:43:52;;;;;;;3.05;2.75;;;;;;;17.49;76.17;95989.94;5221464;56;20663;-75
2021/06/17 22:48:55;;;;;;;6.00;3.17;;;;;;;17.38;77.06;95990.78;5212291;56;20214;-75
2021/06/17 22:53:57;;;;;;;3.40;3.10;;;;;;;17.43;75.97;95992.78;5219693;56;20750;-75
2021/06/17 22:59:00;;;;;;;3.53;3.20;;;;;;;17.40;76.13;95993.81;5221373;56;20109;-76
2021/06/17 23:04:02;;;;;;;3.67;3.38;;;;;;;17.25;77.21;95993.38;5219133;56;20617;-74
2021/06/17 23:09:06;;;;;;;4.13;3.30;;;;;;;17.19;77.19;95998.97;5228096;56;20108;-76
2021/06/17 23:14:08;;;;;;;3.83;3.53;;;;;;;17.36;76.60;95990.53;5230952;56;20121;-76
2021/06/17 23:19:11;;;;;;;3.22;2.92;;;;;;;17.34;76.64;95990.28;5217690;56;20118;-76
2021/06/17 23:24:13;;;;;;;3.67;3.38;;;;;;;17.13;77.16;95994.69;5221059;56;20145;-77
2021/06/17 23:29:16;;;;;;;4.32;3.60;;;;;;;17.08;77.89;95993.44;5221105;56;20185;-76
2021/06/17 23:34:18;;;;;;;4.88;3.72;;;;;;;17.02;78.20;95989.91;5212525;56;20244;-76
2021/06/17 23:39:20;;;;;;;4.00;3.60;;;;;;;17.11;77.70;95984.03;5222071;56;20676;-78
2021/06/17 23:44:23;;;;;;;5.35;3.72;;;;;;;16.86;78.88;95985.13;5221052;56;20135;-76
2021/06/17 23:49:25;;;;;;;3.63;3.35;;;;;;;16.62;80.21;95984.19;5221610;56;20128;-76
2021/06/17 23:54:28;;;;;;;4.22;3.80;;;;;;;16.84;79.38;95990.47;5220871;56;20777;-75
2021/06/17 23:59:30;;;;;;;3.90;3.60;;;;;;;16.75;79.75;95993.53;5220681;56;20635;-76
